createdAt,value
2019-03-04T00:03:26.814Z,13.10
2019-03-04T00:13:28.924Z,13.10
2019-03-04T00:23:30.998Z,13.10
2019-03-04T00:33:33.296Z,13.10
2019-03-04T00:43:35.218Z,13.10
2019-03-04T00:53:37.408Z,13.10
2019-03-04T01:03:39.387Z,13.10
2019-03-04T01:13:41.751Z,13.20
2019-03-04T01:23:44.031Z,13.30
2019-03-04T01:33:45.958Z,13.40
2019-03-04T01:43:47.944Z,13.40
2019-03-04T01:53:50.124Z,13.40
2019-03-04T02:03:52.473Z,13.30
2019-03-04T02:13:56.204Z,13.40
2019-03-04T02:24:19.743Z,13.30
2019-03-04T02:34:21.455Z,13.10
2019-03-04T02:44:23.430Z,13.10
2019-03-04T02:54:25.659Z,13.20
2019-03-04T03:04:47.103Z,13.10
2019-03-04T03:14:49.072Z,13.10
2019-03-04T03:24:51.383Z,13.20
2019-03-04T03:34:53.336Z,13.50
2019-03-04T03:44:55.381Z,13.80
2019-03-04T03:54:57.393Z,13.80
2019-03-04T04:04:59.360Z,13.60
2019-03-04T04:15:01.281Z,13.50
2019-03-04T04:25:03.959Z,13.70
2019-03-04T04:35:06.263Z,13.90
2019-03-04T04:45:08.222Z,13.90
2019-03-04T04:55:10.872Z,13.90
2019-03-04T05:05:13.156Z,13.70
2019-03-04T05:15:16.405Z,13.70
2019-03-04T05:25:18.640Z,13.70
2019-03-04T05:35:21.123Z,13.70
2019-03-04T05:45:24.308Z,13.60
2019-03-04T05:55:26.240Z,13.60
2019-03-04T06:05:28.330Z,13.60
2019-03-04T06:15:30.614Z,12.00
2019-03-04T06:25:34.510Z,10.40
2019-03-04T06:35:36.504Z,10.00
2019-03-04T06:45:38.468Z,9.70
2019-03-04T06:56:03.590Z,9.60
2019-03-04T07:06:05.586Z,10.00
2019-03-04T07:16:07.531Z,10.10
2019-03-04T07:26:09.578Z,10.20
2019-03-04T07:36:30.964Z,10.50
2019-03-04T07:46:33.342Z,11.00
2019-03-04T07:56:35.930Z,11.40
2019-03-04T08:06:37.973Z,11.70
2019-03-04T08:16:40.107Z,11.70
2019-03-04T08:26:42.795Z,11.50
2019-03-04T08:36:44.786Z,11.40
2019-03-04T08:46:47.102Z,11.90
2019-03-04T08:56:49.064Z,12.40
2019-03-04T09:06:51.028Z,12.70
2019-03-04T09:16:53.285Z,13.00
2019-03-04T09:26:55.779Z,12.90
2019-03-04T09:36:57.704Z,13.10
2019-03-04T09:46:59.659Z,12.70
2019-03-04T09:57:01.698Z,12.40
2019-03-04T10:07:41.586Z,13.10
2019-03-04T10:18:13.223Z,14.30
2019-03-04T10:28:54.314Z,13.20
2019-03-04T10:39:22.391Z,12.70
2019-03-04T10:49:22.526Z,13.20
2019-03-04T10:59:25.173Z,13.30
2019-03-04T11:09:28.167Z,13.70
2019-03-04T11:19:30.426Z,12.00
2019-03-04T11:29:32.556Z,10.70
2019-03-04T11:39:34.484Z,9.90
2019-03-04T11:49:36.669Z,10.00
2019-03-04T11:59:40.943Z,10.30
2019-03-04T12:09:42.967Z,12.10
2019-03-04T12:19:46.189Z,12.50
2019-03-04T12:29:48.206Z,13.20
2019-03-04T12:39:52.012Z,13.40
2019-03-04T12:49:54.148Z,13.30
2019-03-04T12:59:57.305Z,13.50
2019-03-04T13:10:00.099Z,13.70
2019-03-04T13:20:02.655Z,12.70
2019-03-04T13:30:06.517Z,12.40
2019-03-04T13:40:09.874Z,13.80
2019-03-04T13:50:17.038Z,12.90
2019-03-04T14:00:19.845Z,13.20
2019-03-04T14:10:22.554Z,13.30
2019-03-04T14:20:24.510Z,13.80
2019-03-04T14:30:26.476Z,13.40
2019-03-04T14:40:28.743Z,14.20
2019-03-04T14:50:30.797Z,13.90
2019-03-04T15:00:34.048Z,12.50
2019-03-04T15:10:36.261Z,12.90
2019-03-04T15:20:38.459Z,12.40
2019-03-04T15:30:41.793Z,12.60
2019-03-04T15:40:44.437Z,12.70
2019-03-04T15:50:46.818Z,12.40
2019-03-04T16:00:48.763Z,12.20
2019-03-04T16:10:50.731Z,11.80
2019-03-04T16:20:52.763Z,11.70
2019-03-04T16:30:54.696Z,11.60
2019-03-04T16:40:56.745Z,11.20
2019-03-04T16:50:59.325Z,11.00
2019-03-04T17:01:01.435Z,10.70
2019-03-04T17:11:03.822Z,10.40
2019-03-04T17:21:05.768Z,10.10
2019-03-04T17:31:08.447Z,9.80
2019-03-04T17:41:10.598Z,9.70
2019-03-04T17:51:12.807Z,9.60
2019-03-04T18:01:14.983Z,9.60
2019-03-04T18:11:17.353Z,9.60
2019-03-04T18:21:19.627Z,9.60
2019-03-04T18:32:09.542Z,9.50
2019-03-04T18:42:55.023Z,9.50
2019-03-04T18:52:59.266Z,9.50
2019-03-04T19:03:01.291Z,9.30
2019-03-04T19:13:03.241Z,9.20
2019-03-04T19:23:05.558Z,9.20
2019-03-04T19:33:08.632Z,9.10
2019-03-04T19:43:10.611Z,9.00
2019-03-04T19:53:12.836Z,8.90
2019-03-04T20:03:16.357Z,8.80
2019-03-04T20:13:18.326Z,8.80
2019-03-04T20:23:20.367Z,8.90
2019-03-04T20:33:22.640Z,9.10
2019-03-04T20:43:25.178Z,9.30
2019-03-04T20:53:27.778Z,9.40
2019-03-04T21:03:34.817Z,9.30
2019-03-04T21:13:35.784Z,9.10
2019-03-04T21:23:38.175Z,8.40
2019-03-04T21:34:21.522Z,8.30
2019-03-04T21:44:59.976Z,8.30
2019-03-04T21:55:04.927Z,8.30
2019-03-04T22:05:10.386Z,8.40
2019-03-04T22:15:13.067Z,8.30
2019-03-04T22:25:15.223Z,8.40
2019-03-04T22:35:18.974Z,8.40
2019-03-04T22:45:21.905Z,8.40
2019-03-04T22:55:29.573Z,8.60
2019-03-04T23:05:31.884Z,8.70
2019-03-04T23:15:35.045Z,8.70
2019-03-04T23:25:37.362Z,8.70
2019-03-04T23:35:39.296Z,8.70
2019-03-04T23:45:41.737Z,8.70
2019-03-04T23:55:44.475Z,8.60
